»·PEaware :: N717TS KSEA-KYKM

N717TS :: KSEA-KYKM

FLIGHT INFORMATION

Flight Status: Arrived
Operator: Privately registered:
United States
More flights under this callsign
Pilot: Ty S. (2873)
Aircraft: CESSNA 172 SKYHAWK
(C172)
More flights by this aircraft type
Origin: KSEA Seattle-Tacoma Intl
United States
Destination: KYKM Yakima Air Term/Mcallister
United States
More flights between these airports :: More routes between these airports
Route: SEA V298 YKM
File this flight plan on PilotEdge
Remarks:
Altitude:
(Current/Filed)
9,000ft
Speed:
(Current/Filed)
124kts
Departed: 18-Sep-20 03:43 PM
Arrived: 18-Sep-20 04:42 PM
Distance/Time
Traveled:
89nm/0:59
Distance/Time
To Go:
Arrived

Flight Plot

Page will automatically refresh every two minutes.

Flight plan parsing failed; only flown route is shown


Map Options




Map Legend


Flown Route
Filed Route
Departure Airport
Arrival Airport
Navaid (VOR, NDB)
Fix

Horizontal Profiles

Position Reports

Time Latitude Longitude Heading Altitude Ground
Speed
18-Sep-20 15:01 47.439348 -122.315365 109 372ft 0kts
18-Sep-20 15:02 47.439348 -122.315365 109 372ft 0kts
18-Sep-20 15:03 47.439348 -122.315365 109 372ft 0kts
18-Sep-20 15:04 47.439348 -122.315365 109 372ft 0kts
18-Sep-20 15:05 47.439348 -122.315365 109 372ft 0kts
18-Sep-20 15:06 47.439348 -122.315365 109 372ft 0kts
18-Sep-20 15:07 47.439348 -122.315365 109 372ft 0kts
18-Sep-20 15:08 47.439348 -122.315365 109 372ft 0kts
18-Sep-20 15:09 47.439348 -122.315365 109 372ft 0kts
18-Sep-20 15:10 47.439348 -122.315365 109 372ft 0kts
18-Sep-20 15:11 47.439348 -122.315365 109 372ft 0kts
18-Sep-20 15:12 47.439348 -122.315365 109 372ft 0kts
18-Sep-20 15:13 47.439348 -122.315365 109 372ft 0kts
18-Sep-20 15:14 47.439348 -122.315365 109 372ft 0kts
18-Sep-20 15:15 47.439348 -122.315365 109 372ft 0kts
18-Sep-20 15:16 47.439348 -122.315365 109 372ft 0kts
18-Sep-20 15:17 47.439348 -122.315365 109 372ft 0kts
18-Sep-20 15:18 47.439348 -122.315365 109 372ft 0kts
18-Sep-20 15:19 47.439348 -122.315365 109 372ft 0kts
18-Sep-20 15:20 47.439348 -122.315365 109 372ft 0kts
18-Sep-20 15:21 47.439348 -122.315365 109 372ft 0kts
18-Sep-20 15:22 47.439348 -122.315365 109 372ft 0kts
18-Sep-20 15:23 47.439348 -122.315365 109 372ft 0kts
18-Sep-20 15:24 47.439348 -122.315364 109 372ft 0kts
18-Sep-20 15:25 47.439348 -122.315364 109 372ft 0kts
18-Sep-20 15:26 47.439348 -122.315364 109 372ft 0kts
18-Sep-20 15:27 47.439348 -122.315364 109 372ft 0kts
18-Sep-20 15:28 47.439348 -122.315364 109 372ft 0kts
18-Sep-20 15:29 47.439348 -122.315364 109 372ft 0kts
18-Sep-20 15:30 47.439348 -122.315364 109 372ft 0kts
18-Sep-20 15:31 47.439348 -122.315364 109 372ft 0kts
18-Sep-20 15:32 47.439348 -122.315364 109 372ft 0kts
18-Sep-20 15:33 47.439348 -122.315364 109 372ft 0kts
18-Sep-20 15:34 47.439348 -122.315364 109 372ft 0kts
18-Sep-20 15:35 47.439554 -122.314614 58 372ft 8kts
18-Sep-20 15:36 47.440157 -122.315003 141 372ft 10kts
18-Sep-20 15:37 47.443711 -122.313601 1 375ft 22kts
18-Sep-20 15:38 47.450649 -122.313545 2 393ft 28kts
18-Sep-20 15:39 47.459241 -122.313467 359 416ft 26kts
18-Sep-20 15:40 47.463673 -122.314923 270 418ft 16kts
18-Sep-20 15:41 47.463694 -122.316985 268 413ft 11kts
18-Sep-20 15:42 47.449656 -122.318518 183 569ft 91kts
18-Sep-20 15:43 47.424371 -122.315325 166 1247ft 95kts
18-Sep-20 15:44 47.407439 -122.289451 109 1943ft 94kts
18-Sep-20 15:45 47.399134 -122.250923 101 2548ft 98kts
18-Sep-20 15:46 47.399465 -122.209005 89 3081ft 103kts
18-Sep-20 15:47 47.400562 -122.164433 88 3478ft 110kts
18-Sep-20 15:48 47.402138 -122.122449 85 4175ft 91kts
18-Sep-20 15:49 47.399455 -122.085431 98 4781ft 86kts
18-Sep-20 15:50 47.394881 -122.049156 106 5296ft 90kts
18-Sep-20 15:51 47.387443 -122.011053 106 5590ft 103kts
18-Sep-20 15:52 47.379659 -121.969321 105 6060ft 104kts
18-Sep-20 15:53 47.369294 -121.934630 55 6581ft 96kts
18-Sep-20 15:54 47.362087 -121.896141 112 6984ft 108kts
18-Sep-20 15:55 47.349949 -121.852580 112 7294ft 119kts
18-Sep-20 15:56 47.337818 -121.809046 112 7597ft 110kts
18-Sep-20 15:57 47.320716 -121.771744 127 8013ft 110kts
18-Sep-20 15:58 47.307553 -121.733472 160 8419ft 108kts
18-Sep-20 15:59 47.287347 -121.701173 126 8841ft 112kts
18-Sep-20 16:00 47.267818 -121.662337 126 9029ft 125kts
18-Sep-20 16:01 47.247361 -121.618076 126 9058ft 133kts
18-Sep-20 16:02 47.226152 -121.572869 126 9048ft 136kts
18-Sep-20 16:03 47.204410 -121.527236 126 9047ft 134kts
18-Sep-20 16:04 47.182564 -121.481839 126 9045ft 134kts
18-Sep-20 16:05 47.160616 -121.438641 126 8999ft 129kts
18-Sep-20 16:06 47.139064 -121.396072 126 8996ft 131kts
18-Sep-20 16:07 47.117425 -121.353090 126 8989ft 129kts
18-Sep-20 16:08 47.095517 -121.312087 131 8990ft 127kts
18-Sep-20 16:09 47.072455 -121.272410 130 8987ft 128kts
18-Sep-20 16:10 47.049301 -121.232670 130 8989ft 127kts
18-Sep-20 16:11 47.025327 -121.194937 136 8983ft 126kts
18-Sep-20 16:12 46.999780 -121.159184 136 8982ft 126kts
18-Sep-20 16:13 46.974274 -121.123642 136 9022ft 125kts
18-Sep-20 16:14 46.949256 -121.088956 136 9108ft 122kts
18-Sep-20 16:15 46.924494 -121.054682 138 9181ft 120kts
18-Sep-20 16:16 46.900131 -121.021152 136 9298ft 120kts
18-Sep-20 16:17 46.875561 -120.987491 136 9399ft 121kts
18-Sep-20 16:18 46.850925 -120.953856 136 9408ft 125kts
18-Sep-20 16:19 46.826132 -120.915694 125 9203ft 130kts
18-Sep-20 16:20 46.805679 -120.871735 123 8995ft 131kts
18-Sep-20 16:21 46.784605 -120.826559 126 8563ft 138kts
18-Sep-20 16:22 46.761124 -120.780097 124 7904ft 145kts
18-Sep-20 16:23 46.738018 -120.732344 129 7305ft 143kts
18-Sep-20 16:24 46.716404 -120.685664 117 7013ft 133kts
18-Sep-20 16:25 46.699062 -120.638337 116 6688ft 137kts
18-Sep-20 16:26 46.681302 -120.589436 118 6020ft 131kts
18-Sep-20 16:27 46.663782 -120.542965 117 5985ft 130kts
18-Sep-20 16:28 46.645885 -120.497480 118 5922ft 130kts
18-Sep-20 16:29 46.628010 -120.451296 119 5364ft 131kts
18-Sep-20 16:30 46.610423 -120.404853 118 4783ft 131kts
18-Sep-20 16:31 46.592927 -120.358184 117 4320ft 133kts
18-Sep-20 16:32 46.575067 -120.311486 122 4321ft 132kts
18-Sep-20 16:33 46.543178 -120.288498 160 4338ft 129kts
18-Sep-20 16:34 46.513702 -120.294081 255 3868ft 121kts
18-Sep-20 16:35 46.517396 -120.339008 287 3793ft 115kts
18-Sep-20 16:36 46.528030 -120.383351 287 3124ft 109kts
18-Sep-20 16:37 46.538607 -120.424168 290 2590ft 108kts
18-Sep-20 16:38 46.548166 -120.462901 288 2045ft 91kts
18-Sep-20 16:39 46.556948 -120.497212 288 1580ft 90kts
18-Sep-20 16:40 46.564662 -120.528173 290 1135ft 73kts
18-Sep-20 16:41 46.569286 -120.542165 328 1071ft 9kts
18-Sep-20 16:42 46.571549 -120.550922 289 1087ft 32kts
18-Sep-20 16:43 46.572879 -120.553084 291 1091ft 0kts
18-Sep-20 16:45 46.572879 -120.553084 291 1091ft 0kts
18-Sep-20 16:46 46.572879 -120.553084 291 1091ft 0kts
18-Sep-20 16:47 46.572879 -120.553084 291 1091ft 0kts
18-Sep-20 16:48 46.572879 -120.553084 291 1091ft 0kts

Navigation Log

Ident Type
Flight plan parsing failed, navigation log unavailable